createdAt,value
2018-01-18T00:00:45.640Z,96143.11
2018-01-18T00:03:11.566Z,96146.48
2018-01-18T00:05:39.246Z,96130.36
2018-01-18T00:08:05.187Z,96124.45
2018-01-18T00:10:35.152Z,96125.98
2018-01-18T00:13:01.143Z,96128.95
2018-01-18T00:15:29.908Z,96114.67
2018-01-18T00:17:55.858Z,96109.00
2018-01-18T00:20:24.712Z,96110.77
2018-01-18T00:22:50.645Z,96108.04
2018-01-18T00:25:18.321Z,96109.47
2018-01-18T00:27:44.316Z,96114.84
2018-01-18T00:30:10.268Z,96115.09
2018-01-18T00:32:36.243Z,96104.84
2018-01-18T00:35:02.228Z,96100.73
2018-01-18T00:37:30.090Z,96100.64
2018-01-18T00:39:56.071Z,96092.88
2018-01-18T00:42:25.699Z,96090.33
2018-01-18T00:44:51.642Z,96086.62
2018-01-18T00:47:20.755Z,96093.66
2018-01-18T00:49:46.729Z,96095.03
2018-01-18T00:52:14.521Z,96093.59
2018-01-18T00:54:40.504Z,96088.44
2018-01-18T00:57:09.817Z,96091.30
2018-01-18T00:59:35.790Z,96093.77
2018-01-18T01:02:03.684Z,96083.65
2018-01-18T01:04:29.637Z,96094.84
2018-01-18T01:06:55.578Z,96085.42
2018-01-18T01:09:21.595Z,96085.89
2018-01-18T01:11:47.553Z,96083.00
2018-01-18T01:14:15.193Z,96092.27
2018-01-18T01:16:41.145Z,96095.23
2018-01-18T01:19:13.867Z,96099.63
2018-01-18T01:21:39.829Z,96101.97
2018-01-18T01:24:05.784Z,96104.98
2018-01-18T01:26:31.714Z,96103.78
2018-01-18T01:28:59.496Z,96098.20
2018-01-18T01:31:25.489Z,96095.48
2018-01-18T01:33:55.045Z,96096.18
2018-01-18T01:36:20.972Z,96110.95
2018-01-18T01:38:48.698Z,96082.02
2018-01-18T01:41:14.663Z,96089.95
2018-01-18T01:43:40.639Z,96089.92
2018-01-18T01:46:06.582Z,96074.67
2018-01-18T01:48:37.584Z,96060.32
2018-01-18T01:51:03.568Z,96045.67
2018-01-18T01:53:29.556Z,96043.24
2018-01-18T01:55:55.478Z,96034.97
2018-01-18T01:58:21.464Z,96030.02
2018-01-18T02:00:51.046Z,96033.82
2018-01-18T02:06:07.353Z,96030.53
2018-01-18T02:08:33.353Z,96025.13
2018-01-18T02:10:59.297Z,96021.98
2018-01-18T02:13:25.258Z,96020.60
2018-01-18T02:15:51.234Z,96019.49
2018-01-18T02:18:17.197Z,96022.56
2018-01-18T02:20:43.171Z,96015.70
2018-01-18T02:23:09.148Z,96004.60
2018-01-18T02:25:35.126Z,96005.59
2018-01-18T02:28:01.060Z,95990.95
2018-01-18T02:30:27.024Z,95993.09
2018-01-18T02:32:53.037Z,95989.19
2018-01-18T02:35:18.990Z,95976.81
2018-01-18T02:37:44.970Z,95976.80
2018-01-18T02:40:10.939Z,95957.94
2018-01-18T02:42:36.954Z,95959.21
2018-01-18T02:45:02.933Z,95958.09
2018-01-18T02:47:31.691Z,95957.39
2018-01-18T02:49:57.718Z,95956.48
2018-01-18T02:52:23.648Z,95959.49
2018-01-18T02:54:49.658Z,95958.14
2018-01-18T02:57:15.615Z,95955.13
2018-01-18T02:59:41.629Z,95950.36
2018-01-18T03:02:07.615Z,95943.12
2018-01-18T03:04:33.569Z,95948.47
2018-01-18T03:06:59.527Z,95936.02
2018-01-18T03:09:26.154Z,95928.71
2018-01-18T03:11:52.103Z,95933.16
2018-01-18T03:14:21.470Z,95936.59
2018-01-18T03:16:47.453Z,95938.58
2018-01-18T03:19:15.678Z,95937.82
2018-01-18T03:21:41.638Z,95946.00
2018-01-18T03:24:10.700Z,95932.30
2018-01-18T03:26:36.628Z,95928.27
2018-01-18T03:29:05.664Z,95914.30
2018-01-18T03:31:31.613Z,95913.96
2018-01-18T03:33:57.558Z,95913.12
2018-01-18T03:36:23.561Z,95910.38
2018-01-18T03:38:49.543Z,95892.97
2018-01-18T03:41:17.450Z,95890.17
2018-01-18T03:43:43.453Z,95878.34
2018-01-18T03:46:11.242Z,95872.25
2018-01-18T03:48:37.296Z,95863.41
2018-01-18T03:51:05.878Z,95861.31
2018-01-18T03:53:31.837Z,95852.27
2018-01-18T03:56:00.609Z,95853.18
2018-01-18T03:58:26.636Z,95840.98
2018-01-18T04:00:59.650Z,95832.52
2018-01-18T04:03:25.652Z,95825.34
2018-01-18T04:05:51.628Z,95816.88
2018-01-18T04:08:17.628Z,95814.05
2018-01-18T04:10:43.619Z,95801.09
2018-01-18T04:13:09.569Z,95791.66
2018-01-18T04:15:35.560Z,95784.23
2018-01-18T04:18:01.872Z,95791.36
2018-01-18T04:20:27.878Z,95787.13
2018-01-18T04:22:57.072Z,95781.23
2018-01-18T04:25:23.065Z,95776.36
2018-01-18T04:27:51.330Z,95778.13
2018-01-18T04:30:17.342Z,95772.25
2018-01-18T04:32:46.652Z,95760.84
2018-01-18T04:35:12.609Z,95749.78
2018-01-18T04:37:42.318Z,95736.66
2018-01-18T04:40:08.324Z,95733.50
2018-01-18T04:42:35.804Z,95720.45
2018-01-18T04:45:01.821Z,95707.06
2018-01-18T04:47:31.674Z,95704.08
2018-01-18T04:49:57.634Z,95694.77
2018-01-18T04:52:23.583Z,95687.80
2018-01-18T04:54:49.603Z,95668.65
2018-01-18T04:57:15.566Z,95666.35
2018-01-18T04:59:42.243Z,95663.09
2018-01-18T05:02:08.239Z,95654.05
2018-01-18T05:04:38.190Z,95651.42
2018-01-18T05:07:04.212Z,95637.95
2018-01-18T05:09:33.307Z,95635.75
2018-01-18T05:11:59.332Z,95625.89
2018-01-18T05:14:26.700Z,95631.41
2018-01-18T05:16:52.673Z,95616.05
2018-01-18T05:19:20.747Z,95615.62
2018-01-18T05:21:46.759Z,95612.88
2018-01-18T05:24:12.801Z,95598.43
2018-01-18T05:26:38.817Z,95603.73
2018-01-18T05:29:04.775Z,95588.22
2018-01-18T05:31:32.652Z,95581.64
2018-01-18T05:33:58.682Z,95572.44
2018-01-18T05:36:27.982Z,95563.02
2018-01-18T05:38:54.019Z,95563.84
2018-01-18T05:41:22.946Z,95550.06
2018-01-18T05:43:48.938Z,95537.34
2018-01-18T05:46:16.924Z,95544.70
2018-01-18T05:48:42.949Z,95544.70
2018-01-18T05:51:11.263Z,95526.28
2018-01-18T05:53:37.319Z,95518.95
2018-01-18T05:56:06.907Z,95507.16
2018-01-18T05:58:32.878Z,95500.25
2018-01-18T06:00:58.898Z,95482.22
2018-01-18T06:03:24.942Z,95470.52
2018-01-18T06:05:50.958Z,95461.67
2018-01-18T06:08:17.883Z,95455.98
2018-01-18T06:10:43.897Z,95447.67
2018-01-18T06:13:13.006Z,95447.00
2018-01-18T06:15:38.996Z,95428.71
2018-01-18T06:18:07.088Z,95423.92
2018-01-18T06:20:33.035Z,95422.64
2018-01-18T06:23:01.777Z,95425.91
2018-01-18T06:25:27.808Z,95405.82
2018-01-18T06:27:57.373Z,95404.16
2018-01-18T06:30:23.387Z,95395.66
2018-01-18T06:32:52.466Z,95392.18
2018-01-18T06:35:18.463Z,95365.57
2018-01-18T06:37:44.517Z,95382.89
2018-01-18T06:40:10.476Z,95374.25
2018-01-18T06:42:36.496Z,95358.41
2018-01-18T06:45:03.428Z,95351.56
2018-01-18T06:50:02.106Z,95386.25
2018-01-18T06:52:28.061Z,95381.16
2018-01-18T06:54:54.056Z,95384.41
2018-01-18T06:57:20.075Z,95375.80
2018-01-18T06:59:49.196Z,95361.55
2018-01-18T07:02:15.199Z,95354.63
2018-01-18T07:04:42.588Z,95369.66
2018-01-18T07:07:08.556Z,95367.83
2018-01-18T07:09:37.582Z,95365.92
2018-01-18T07:12:03.521Z,95355.84
2018-01-18T07:17:20.339Z,95350.20
2018-01-18T07:19:46.314Z,95346.88
2018-01-18T07:22:12.293Z,95338.39
2018-01-18T07:24:38.339Z,95355.89
2018-01-18T07:27:04.279Z,95350.73
2018-01-18T07:29:30.192Z,95345.91
2018-01-18T07:31:56.140Z,95350.36
2018-01-18T07:34:22.108Z,95331.39
2018-01-18T07:36:48.069Z,95331.67
2018-01-18T07:39:14.092Z,95359.33
2018-01-18T07:41:40.023Z,95345.70
2018-01-18T07:44:06.028Z,95349.56
2018-01-18T07:46:32.021Z,95352.65
2018-01-18T07:48:58.004Z,95348.62
2018-01-18T07:51:23.989Z,95352.48
2018-01-18T07:53:56.116Z,95356.36
2018-01-18T07:56:22.090Z,95364.06
2018-01-18T07:58:48.143Z,95357.38
2018-01-18T08:01:14.148Z,95395.64
2018-01-18T08:03:46.284Z,95354.98
2018-01-18T08:06:12.267Z,95382.88
2018-01-18T08:08:38.240Z,95364.66
2018-01-18T08:11:04.217Z,95360.59
2018-01-18T08:13:30.165Z,95359.05
2018-01-18T08:15:56.089Z,95368.28
2018-01-18T08:18:22.083Z,95363.19
2018-01-18T08:20:48.068Z,95363.41
2018-01-18T08:23:14.048Z,95363.88
2018-01-18T08:25:40.012Z,95342.87
2018-01-18T08:28:06.030Z,95367.47
2018-01-18T08:30:31.989Z,95358.02
2018-01-18T08:32:57.968Z,95365.72
2018-01-18T08:35:23.948Z,95365.41
2018-01-18T08:37:50.043Z,95370.92
2018-01-18T08:40:16.010Z,95371.45
2018-01-18T08:42:42.033Z,95351.49
2018-01-18T08:45:09.406Z,95326.41
2018-01-18T08:47:35.361Z,95339.72
2018-01-18T08:50:03.361Z,95340.72
2018-01-18T08:52:29.364Z,95349.28
2018-01-18T08:54:58.591Z,95355.64
2018-01-18T08:57:24.598Z,95318.98
2018-01-18T08:59:52.407Z,95314.62
2018-01-18T09:02:18.420Z,95318.95
2018-01-18T09:04:44.378Z,95306.05
2018-01-18T09:07:10.377Z,95287.74
2018-01-18T09:09:36.380Z,95284.53
2018-01-18T09:12:04.489Z,95288.48
2018-01-18T09:14:30.445Z,95271.47
2018-01-18T09:16:58.867Z,95286.70
2018-01-18T09:19:24.829Z,95292.78
2018-01-18T09:21:53.952Z,95269.17
2018-01-18T09:24:19.962Z,95288.19
2018-01-18T09:26:48.503Z,95276.77
2018-01-18T09:29:14.481Z,95283.98
2018-01-18T09:31:43.876Z,95284.55
2018-01-18T09:34:09.843Z,95283.82
2018-01-18T09:36:39.187Z,95297.01
2018-01-18T09:39:05.149Z,95255.18
2018-01-18T09:41:31.094Z,95262.42
2018-01-18T09:43:57.084Z,95280.88
2018-01-18T09:46:23.054Z,95273.88
2018-01-18T09:48:50.014Z,95254.53
2018-01-18T09:51:15.998Z,95269.36
2018-01-18T09:53:45.068Z,95274.83
2018-01-18T09:56:11.003Z,95277.48
2018-01-18T09:58:38.899Z,95256.65
2018-01-18T10:01:04.884Z,95253.22
2018-01-18T10:03:34.064Z,95221.84
2018-01-18T10:06:00.009Z,95228.28
2018-01-18T10:08:29.339Z,95245.56
2018-01-18T10:10:55.306Z,95236.96
2018-01-18T10:13:24.088Z,95236.09
2018-01-18T10:15:50.152Z,95219.83
2018-01-18T10:18:16.122Z,95226.48
2018-01-18T10:20:42.039Z,95231.05
2018-01-18T10:23:08.008Z,95221.14
2018-01-18T10:25:35.124Z,95247.49
2018-01-18T10:28:01.069Z,95209.55
2018-01-18T10:30:30.266Z,95218.83
2018-01-18T10:32:56.358Z,95241.86
2018-01-18T10:35:25.745Z,95198.30
2018-01-18T10:37:51.679Z,95209.50
2018-01-18T10:40:20.781Z,95227.63
2018-01-18T10:42:46.820Z,95197.33
2018-01-18T10:45:14.007Z,95202.98
2018-01-18T10:47:39.981Z,95176.69
2018-01-18T10:50:09.104Z,95167.00
2018-01-18T10:52:35.068Z,95186.98
2018-01-18T10:55:01.078Z,95168.20
2018-01-18T10:57:27.013Z,95165.11
2018-01-18T10:59:52.975Z,95169.86
2018-01-18T11:02:20.911Z,95158.98
2018-01-18T11:04:46.877Z,95147.97
2018-01-18T11:07:15.083Z,95187.78
2018-01-18T11:09:41.024Z,95157.78
2018-01-18T11:12:10.256Z,95132.85
2018-01-18T11:14:36.284Z,95133.03
2018-01-18T11:17:05.305Z,95144.59
2018-01-18T11:19:31.288Z,95125.66
2018-01-18T11:21:59.154Z,95140.82
2018-01-18T11:24:25.119Z,95122.78
2018-01-18T11:26:54.829Z,95116.75
2018-01-18T11:29:20.803Z,95110.36
2018-01-18T11:31:46.742Z,95073.75
2018-01-18T11:34:12.746Z,95091.99
2018-01-18T11:36:38.712Z,95101.63
2018-01-18T11:39:05.890Z,95127.89
2018-01-18T11:41:31.858Z,95111.87
2018-01-18T11:44:00.948Z,95108.49
2018-01-18T11:46:26.949Z,95130.89
2018-01-18T11:48:57.099Z,95094.53
2018-01-18T11:51:23.088Z,95082.75
2018-01-18T11:53:50.088Z,95086.84
2018-01-18T11:56:16.072Z,95074.12
2018-01-18T11:58:45.428Z,95066.97
2018-01-18T12:01:11.419Z,95048.64
2018-01-18T12:03:39.200Z,95068.17
2018-01-18T12:06:05.154Z,95038.63
2018-01-18T12:08:31.140Z,95085.59
2018-01-18T12:10:57.157Z,95066.58
2018-01-18T12:13:23.129Z,95061.72
2018-01-18T12:15:50.807Z,95070.63
2018-01-18T12:18:16.805Z,95062.89
2018-01-18T12:20:46.748Z,95044.86
2018-01-18T12:23:12.746Z,95062.64
2018-01-18T12:25:42.223Z,95052.32
2018-01-18T12:28:08.188Z,95053.55
2018-01-18T12:30:35.308Z,95055.36
2018-01-18T12:33:01.295Z,95029.55
2018-01-18T12:35:29.818Z,95012.80
2018-01-18T12:37:55.753Z,95021.81
2018-01-18T12:40:25.166Z,95026.69
2018-01-18T12:42:51.124Z,95007.13
2018-01-18T12:45:17.074Z,95009.65
2018-01-18T12:47:43.089Z,95066.56
2018-01-18T12:50:09.059Z,95024.80
2018-01-18T12:52:36.209Z,95027.03
2018-01-18T12:55:02.229Z,95020.91
2018-01-18T12:57:31.263Z,95032.30
2018-01-18T12:59:57.250Z,95040.15
2018-01-18T13:02:26.565Z,95017.19
2018-01-18T13:04:52.515Z,95027.49
2018-01-18T13:07:20.224Z,95039.60
2018-01-18T13:09:46.237Z,95036.98
2018-01-18T13:12:14.966Z,95044.62
2018-01-18T13:14:40.931Z,95039.59
2018-01-18T13:17:09.720Z,95037.19
2018-01-18T13:19:35.674Z,95042.92
2018-01-18T13:22:01.702Z,95048.53
2018-01-18T13:24:27.677Z,95038.06
2018-01-18T13:26:53.639Z,95043.81
2018-01-18T13:29:21.545Z,95069.73
2018-01-18T13:31:47.507Z,95076.55
2018-01-18T13:34:17.518Z,95076.62
2018-01-18T13:36:43.469Z,95082.86
2018-01-18T13:39:12.567Z,95098.94
2018-01-18T13:41:38.507Z,95088.09
2018-01-18T13:44:05.863Z,95089.48
2018-01-18T13:46:31.837Z,95101.27
2018-01-18T13:49:01.030Z,95092.41
2018-01-18T13:51:26.971Z,95095.49
2018-01-18T13:53:56.122Z,95099.47
2018-01-18T13:56:22.065Z,95104.44
2018-01-18T13:58:48.027Z,95098.32
2018-01-18T14:01:13.994Z,95118.09
2018-01-18T14:03:39.965Z,95119.91
2018-01-18T14:06:06.901Z,95121.00
2018-01-18T14:08:32.907Z,95121.28
2018-01-18T14:11:02.125Z,95127.31
2018-01-18T14:13:28.121Z,95128.08
2018-01-18T14:15:57.748Z,95131.69
2018-01-18T14:18:23.724Z,95132.28
2018-01-18T14:20:51.067Z,95145.73
2018-01-18T14:23:17.041Z,95157.31
2018-01-18T14:25:46.302Z,95157.84
2018-01-18T14:28:12.277Z,95163.44
2018-01-18T14:30:41.386Z,95167.17
2018-01-18T14:33:07.476Z,95178.90
2018-01-18T14:35:33.439Z,95192.83
2018-01-18T14:37:59.417Z,95202.41
2018-01-18T14:40:25.405Z,95201.52
2018-01-18T14:42:52.932Z,95219.55
2018-01-18T14:45:18.925Z,95221.89
2018-01-18T14:47:47.971Z,95224.56
2018-01-18T14:50:13.937Z,95222.39
2018-01-18T14:52:41.886Z,95235.86
2018-01-18T14:55:07.906Z,95238.91
2018-01-18T14:57:36.986Z,95244.86
2018-01-18T15:00:02.992Z,95247.08
2018-01-18T15:02:31.058Z,95247.28
2018-01-18T15:04:57.024Z,95245.80
2018-01-18T15:07:26.422Z,95257.84
2018-01-18T15:09:52.380Z,95254.31
2018-01-18T15:12:18.345Z,95266.98
2018-01-18T15:14:44.345Z,95267.52
2018-01-18T15:17:10.324Z,95264.31
2018-01-18T15:19:38.169Z,95259.11
2018-01-18T15:22:04.151Z,95246.76
2018-01-18T15:24:31.974Z,95245.00
2018-01-18T15:26:57.910Z,95241.86
2018-01-18T15:29:27.555Z,95231.38
2018-01-18T15:31:53.566Z,95238.78
2018-01-18T15:34:21.318Z,95235.30
2018-01-18T15:36:47.302Z,95224.02
2018-01-18T15:39:17.586Z,95235.92
2018-01-18T15:41:43.629Z,95237.19
2018-01-18T15:44:12.692Z,95236.26
2018-01-18T15:46:38.659Z,95254.50
2018-01-18T15:49:04.695Z,95257.86
2018-01-18T15:51:30.685Z,95270.48
2018-01-18T15:53:56.702Z,95281.11
2018-01-18T15:56:22.771Z,95277.11
2018-01-18T15:58:48.767Z,95275.45
2018-01-18T16:01:17.894Z,95262.42
2018-01-18T16:03:43.857Z,95268.83
2018-01-18T16:06:12.051Z,95267.53
2018-01-18T16:08:38.122Z,95283.22
2018-01-18T16:11:08.271Z,95289.56
2018-01-18T16:13:34.300Z,95299.23
2018-01-18T16:16:03.549Z,95288.97
2018-01-18T16:18:29.602Z,95302.30
2018-01-18T16:20:56.780Z,95295.31
2018-01-18T16:23:22.843Z,95315.33
2018-01-18T16:25:48.836Z,95329.89
2018-01-18T16:28:14.888Z,95323.52
2018-01-18T16:30:40.898Z,95339.36
2018-01-18T16:33:08.826Z,95330.11
2018-01-18T16:35:34.846Z,95325.12
2018-01-18T16:38:02.601Z,95321.36
2018-01-18T16:40:28.584Z,95317.90
2018-01-18T16:42:57.435Z,95322.09
2018-01-18T16:45:23.442Z,95318.02
2018-01-18T16:47:53.169Z,95303.23
2018-01-18T16:50:19.170Z,95308.24
2018-01-18T16:52:47.187Z,95317.16
2018-01-18T16:55:13.188Z,95311.03
2018-01-18T16:57:41.735Z,95312.58
2018-01-18T17:02:58.691Z,95356.65
2018-01-18T17:05:24.673Z,95361.58
2018-01-18T17:07:50.650Z,95370.47
2018-01-18T17:10:16.695Z,95353.27
2018-01-18T17:12:42.664Z,95360.81
2018-01-18T17:15:08.620Z,95354.17
2018-01-18T17:17:34.576Z,95337.08
2018-01-18T17:20:00.605Z,95343.03
2018-01-18T17:22:26.561Z,95323.80
2018-01-18T17:24:52.548Z,95325.34
2018-01-18T17:27:18.493Z,95335.97
2018-01-18T17:29:44.460Z,95342.07
2018-01-18T17:32:10.441Z,95337.53
2018-01-18T17:34:36.374Z,95330.11
2018-01-18T17:37:02.330Z,95344.95
2018-01-18T17:39:28.304Z,95334.44
2018-01-18T17:41:54.333Z,95336.98
2018-01-18T17:44:20.324Z,95351.95
2018-01-18T17:46:46.265Z,95361.33
2018-01-18T17:49:12.250Z,95403.03
2018-01-18T17:51:38.234Z,95444.53
2018-01-18T17:54:04.206Z,95443.97
2018-01-18T17:56:30.168Z,95445.47
2018-01-18T17:58:56.192Z,95452.56
2018-01-18T18:01:22.971Z,95466.12
2018-01-18T18:03:48.915Z,95447.33
2018-01-18T18:06:18.243Z,95428.61
2018-01-18T18:08:44.192Z,95414.81
2018-01-18T18:11:12.343Z,95433.88
2018-01-18T18:13:38.267Z,95444.26
2018-01-18T18:16:04.257Z,95431.75
2018-01-18T18:18:30.259Z,95474.66
2018-01-18T18:20:56.212Z,95476.74
2018-01-18T18:23:25.211Z,95474.81
2018-01-18T18:25:51.180Z,95482.42
2018-01-18T18:28:18.746Z,95481.03
2018-01-18T18:30:44.806Z,95463.19
2018-01-18T18:33:14.793Z,95446.08
2018-01-18T18:35:40.825Z,95449.02
2018-01-18T18:38:08.149Z,95458.20
2018-01-18T18:40:34.197Z,95464.39
2018-01-18T18:43:04.144Z,95432.37
2018-01-18T18:45:30.271Z,95441.20
2018-01-18T18:47:59.375Z,95430.59
2018-01-18T18:50:25.419Z,95433.66
2018-01-18T18:52:51.416Z,95436.40
2018-01-18T18:55:17.346Z,95445.55
2018-01-18T18:57:43.354Z,95451.36
2018-01-18T19:00:09.435Z,95446.84
2018-01-18T19:02:35.409Z,95451.52
2018-01-18T19:05:04.611Z,95454.72
2018-01-18T19:07:30.623Z,95442.19
2018-01-18T19:09:59.743Z,95451.61
2018-01-18T19:12:25.756Z,95447.28
2018-01-18T19:14:54.915Z,95449.05
2018-01-18T19:17:20.923Z,95438.45
2018-01-18T19:19:48.174Z,95441.53
2018-01-18T19:22:14.131Z,95440.13
2018-01-18T19:24:43.380Z,95445.63
2018-01-18T19:27:09.395Z,95450.23
2018-01-18T19:29:35.392Z,95448.41
2018-01-18T19:32:01.370Z,95447.65
2018-01-18T19:34:27.367Z,95448.41
2018-01-18T19:36:54.899Z,95461.20
2018-01-18T19:39:20.910Z,95459.23
2018-01-18T19:41:49.996Z,95464.25
2018-01-18T19:44:15.998Z,95470.70
2018-01-18T19:46:44.971Z,95467.34
2018-01-18T19:49:10.982Z,95467.70
2018-01-18T19:51:38.922Z,95472.52
2018-01-18T19:54:04.911Z,95471.86
2018-01-18T19:56:34.037Z,95473.31
2018-01-18T19:59:00.063Z,95464.64
2018-01-18T20:01:29.064Z,95474.18
2018-01-18T20:03:55.879Z,95464.27
2018-01-18T20:06:21.839Z,95465.48
2018-01-18T20:08:47.825Z,95453.59
2018-01-18T20:11:13.891Z,95472.08
2018-01-18T20:13:39.879Z,95477.12
2018-01-18T20:16:05.822Z,95452.89
2018-01-18T20:18:34.622Z,95445.84
2018-01-18T20:21:00.619Z,95456.86
2018-01-18T20:23:29.584Z,95463.69
2018-01-18T20:25:55.559Z,95473.80
2018-01-18T20:28:24.649Z,95478.55
2018-01-18T20:30:50.626Z,95480.34
2018-01-18T20:33:20.584Z,95480.85
2018-01-18T20:35:46.560Z,95480.77
2018-01-18T20:38:13.931Z,95462.27
2018-01-18T20:40:39.933Z,95473.16
2018-01-18T20:43:05.917Z,95475.04
2018-01-18T20:48:21.955Z,95488.31
2018-01-18T20:50:47.886Z,95471.16
2018-01-18T20:53:13.854Z,95482.66
2018-01-18T20:55:39.783Z,95493.53
2018-01-18T20:58:05.764Z,95478.38
2018-01-18T21:00:31.793Z,95485.95
2018-01-18T21:02:57.795Z,95464.42
2018-01-18T21:05:23.693Z,95460.27
2018-01-18T21:07:49.679Z,95464.34
2018-01-18T21:10:15.680Z,95456.90
2018-01-18T21:12:41.642Z,95471.97
2018-01-18T21:15:07.630Z,95472.45
2018-01-18T21:17:33.603Z,95470.02
2018-01-18T21:19:59.594Z,95455.73
2018-01-18T21:22:25.601Z,95483.80
2018-01-18T21:24:51.590Z,95472.02
2018-01-18T21:27:17.568Z,95459.41
2018-01-18T21:29:43.547Z,95448.76
2018-01-18T21:32:09.549Z,95424.56
2018-01-18T21:34:35.501Z,95427.93
2018-01-18T21:37:01.480Z,95431.09
2018-01-18T21:39:27.472Z,95426.13
2018-01-18T21:41:56.562Z,95421.75
2018-01-18T21:44:22.501Z,95427.80
2018-01-18T21:46:49.632Z,95430.95
2018-01-18T21:49:15.611Z,95434.64
2018-01-18T21:51:44.620Z,95418.34
2018-01-18T21:54:10.593Z,95412.75
2018-01-18T21:56:36.573Z,95416.20
2018-01-18T21:59:02.564Z,95421.16
2018-01-18T22:01:28.597Z,95431.75
2018-01-18T22:03:56.262Z,95434.55
2018-01-18T22:06:22.215Z,95443.66
2018-01-18T22:08:52.119Z,95454.16
2018-01-18T22:11:18.110Z,95449.28
2018-01-18T22:13:46.087Z,95437.28
2018-01-18T22:16:12.059Z,95445.47
2018-01-18T22:18:40.849Z,95445.45
2018-01-18T22:21:06.868Z,95440.67
2018-01-18T22:23:35.256Z,95438.16
2018-01-18T22:26:01.183Z,95440.28
2018-01-18T22:28:30.696Z,95445.45
2018-01-18T22:30:56.666Z,95429.56
2018-01-18T22:33:22.624Z,95421.81
2018-01-18T22:35:48.547Z,95427.80
2018-01-18T22:38:14.497Z,95433.69
2018-01-18T22:40:41.142Z,95425.14
2018-01-18T22:43:07.084Z,95422.13
2018-01-18T22:45:36.389Z,95421.41
2018-01-18T22:48:02.376Z,95429.40
2018-01-18T22:50:30.379Z,95436.64
2018-01-18T22:52:56.310Z,95422.60
2018-01-18T22:55:25.541Z,95426.31
2018-01-18T22:57:51.555Z,95432.92
2018-01-18T23:00:21.349Z,95430.44
2018-01-18T23:02:47.347Z,95438.89
2018-01-18T23:05:15.132Z,95434.23
2018-01-18T23:07:41.084Z,95425.85
2018-01-18T23:10:07.057Z,95419.03
2018-01-18T23:12:33.048Z,95419.47
2018-01-18T23:14:58.995Z,95414.70
2018-01-18T23:17:26.404Z,95419.86
2018-01-18T23:19:52.405Z,95412.39
2018-01-18T23:22:21.651Z,95409.67
2018-01-18T23:24:47.663Z,95404.07
2018-01-18T23:27:17.400Z,95401.70
2018-01-18T23:29:43.381Z,95403.87
2018-01-18T23:32:11.162Z,95399.97
2018-01-18T23:34:37.165Z,95394.39
2018-01-18T23:37:06.309Z,95382.34
2018-01-18T23:39:32.315Z,95384.12
2018-01-18T23:42:00.194Z,95381.34
2018-01-18T23:44:26.205Z,95373.80
2018-01-18T23:46:52.229Z,95373.66
2018-01-18T23:49:18.173Z,95381.58
2018-01-18T23:51:44.161Z,95388.30
2018-01-18T23:54:13.385Z,95390.71
2018-01-18T23:56:39.373Z,95395.08
2018-01-18T23:59:08.402Z,95402.40
